Time;durP1;ratioP1;P1;durP2;ratioP2;P2;SDS_P1;SDS_P2;PMS_P1;PMS_P2;Temp;Humidity;BMP_temperature;BMP_pressure;BME280_temperature;BME280_humidity;BME280_pressure;Samples;Min_cycle;Max_cycle;Signal;HPM_P1;HPM_P2
2021/06/04 00:00:35;;;;;;;11.40;7.87;;;21.70;55.60;;;;;;5053499;28;20484;-84
2021/06/04 00:03:04;;;;;;;12.03;6.60;;;21.60;55.20;;;;;;5052639;28;20453;-84
2021/06/04 00:05:34;;;;;;;10.57;6.80;;;21.70;55.00;;;;;;5052777;28;20459;-84
2021/06/04 00:08:00;;;;;;;11.70;6.60;;;21.90;54.50;;;;;;5052622;28;20424;-84
2021/06/04 00:10:28;;;;;;;9.40;7.10;;;21.90;54.40;;;;;;5052990;28;20437;-84
2021/06/04 00:13:10;;;;;;;6.80;5.70;;;21.90;54.50;;;;;;5052300;28;21009;-84
2021/06/04 00:15:38;;;;;;;8.63;6.47;;;21.90;54.00;;;;;;5053006;28;20464;-84
2021/06/04 00:18:04;;;;;;;9.63;6.17;;;21.90;54.30;;;;;;5052435;28;20453;-84
2021/06/04 00:20:31;;;;;;;9.57;6.20;;;22.00;53.50;;;;;;5052398;28;20529;-84
2021/06/04 00:22:57;;;;;;;8.33;5.67;;;21.90;53.70;;;;;;5055258;28;20500;-84
2021/06/04 00:25:24;;;;;;;8.57;5.83;;;21.70;54.00;;;;;;5056512;28;20456;-84
2021/06/04 00:27:51;;;;;;;8.10;5.53;;;21.80;53.90;;;;;;5056669;28;20952;-85
2021/06/04 00:30:19;;;;;;;6.47;5.60;;;21.80;53.80;;;;;;5056166;28;20803;-84
2021/06/04 00:32:47;;;;;;;9.50;6.10;;;21.80;53.30;;;;;;5055781;28;20484;-84
2021/06/04 00:35:13;;;;;;;11.23;5.97;;;21.80;53.40;;;;;;5056271;28;20945;-84
2021/06/04 00:37:40;;;;;;;8.00;6.00;;;21.80;53.90;;;;;;5056454;28;20475;-84
2021/06/04 00:40:09;;;;;;;8.47;6.10;;;21.70;54.20;;;;;;5056520;28;20973;-84
2021/06/04 00:42:36;;;;;;;11.00;6.10;;;21.40;55.30;;;;;;5057261;28;20460;-84
2021/06/04 00:45:07;;;;;;;8.03;6.40;;;21.30;55.30;;;;;;5056265;28;20447;-84
2021/06/04 00:47:34;;;;;;;23.23;6.33;;;21.20;55.20;;;;;;5056605;28;20842;-84
2021/06/04 00:50:04;;;;;;;11.50;6.60;;;20.90;56.00;;;;;;5057407;28;20448;-84
2021/06/04 00:52:35;;;;;;;8.97;6.37;;;20.60;56.80;;;;;;5055505;28;20483;-84
2021/06/04 00:55:04;;;;;;;9.53;6.33;;;20.30;57.80;;;;;;5056091;28;20444;-84
2021/06/04 00:57:32;;;;;;;8.67;6.73;;;20.00;58.60;;;;;;5055803;28;20460;-84
2021/06/04 01:00:02;;;;;;;9.40;6.43;;;19.90;58.60;;;;;;5056553;28;20540;-85
2021/06/04 01:02:29;;;;;;;12.80;7.07;;;19.90;58.60;;;;;;5059011;28;20539;-84
2021/06/04 01:04:56;;;;;;;17.93;6.70;;;19.80;59.30;;;;;;5058902;28;20499;-85
2021/06/04 01:07:32;;;;;;;9.23;6.33;;;19.70;60.00;;;;;;5063840;28;20984;-85
2021/06/04 01:10:08;;;;;;;9.03;6.50;;;19.70;60.00;;;;;;5062087;28;20431;-85
2021/06/04 01:12:57;;;;;;;10.63;4.93;;;19.70;59.60;;;;;;5057009;28;20569;-85
2021/06/04 01:15:48;;;;;;;18.87;6.83;;;19.90;59.30;;;;;;5062694;28;20444;-85
2021/06/04 01:18:26;;;;;;;11.63;6.90;;;19.70;58.90;;;;;;5057883;28;20444;-84
2021/06/04 01:20:56;;;;;;;9.10;6.80;;;19.70;59.40;;;;;;5055357;28;20964;-84
2021/06/04 01:23:50;;;;;;;10.57;6.70;;;19.60;59.90;;;;;;5054975;28;20799;-84
2021/06/04 01:26:23;;;;;;;13.23;7.80;;;19.30;60.90;;;;;;5047169;28;20818;-84
2021/06/04 01:28:53;;;;;;;12.40;7.10;;;19.30;60.50;;;;;;5055537;28;20870;-84
2021/06/04 01:31:24;;;;;;;19.37;6.90;;;19.70;59.40;;;;;;5055472;28;20444;-84
2021/06/04 01:33:55;;;;;;;9.30;7.17;;;19.90;58.60;;;;;;5073910;28;20476;-84
2021/06/04 01:36:31;;;;;;;12.67;6.90;;;20.10;57.90;;;;;;5078066;28;20424;-84
2021/06/04 01:39:07;;;;;;;10.03;6.83;;;20.30;56.90;;;;;;5062240;28;20409;-84
2021/06/04 01:41:36;;;;;;;9.83;6.80;;;20.30;56.80;;;;;;5057545;28;20432;-84
2021/06/04 01:44:07;;;;;;;15.87;7.33;;;20.50;56.30;;;;;;5056194;28;20456;-84
2021/06/04 01:46:37;;;;;;;8.93;6.10;;;20.60;56.10;;;;;;5056324;28;20452;-84
2021/06/04 01:49:08;;;;;;;20.63;6.70;;;20.60;55.40;;;;;;5057673;28;20476;-84
2021/06/04 01:51:38;;;;;;;15.87;7.50;;;20.80;55.00;;;;;;5056013;28;20444;-84
2021/06/04 01:54:11;;;;;;;11.83;7.00;;;20.80;54.80;;;;;;5055413;28;20510;-84
2021/06/04 01:56:42;;;;;;;15.57;7.67;;;20.80;54.70;;;;;;5056069;28;20776;-84
2021/06/04 01:59:15;;;;;;;8.80;6.73;;;20.70;54.80;;;;;;5055892;28;20860;-84
2021/06/04 02:01:45;;;;;;;9.07;7.27;;;20.80;54.40;;;;;;5055432;28;20535;-84
2021/06/04 02:04:14;;;;;;;12.20;7.57;;;20.80;54.40;;;;;;5055290;28;20491;-84
2021/06/04 02:06:42;;;;;;;11.00;6.40;;;20.80;54.30;;;;;;5054836;28;20464;-84
2021/06/04 02:09:11;;;;;;;13.80;6.80;;;20.70;54.10;;;;;;5056030;28;20452;-84
2021/06/04 02:11:40;;;;;;;7.33;6.10;;;20.70;54.70;;;;;;5056100;28;20443;-84
2021/06/04 02:14:10;;;;;;;8.40;6.20;;;20.50;53.90;;;;;;5055231;28;20583;-84
2021/06/04 02:16:55;;;;;;;22.73;11.10;;;20.70;54.00;;;;;;5055499;28;20506;-84
2021/06/04 02:19:29;;;;;;;12.57;6.33;;;20.60;53.70;;;;;;5056229;28;20451;-84
2021/06/04 02:22:01;;;;;;;16.20;6.37;;;20.40;54.30;;;;;;5055705;28;20515;-84
2021/06/04 02:24:35;;;;;;;12.27;7.00;;;20.40;54.20;;;;;;5056882;28;20574;-84
2021/06/04 02:27:08;;;;;;;21.63;6.50;;;20.50;54.40;;;;;;5055703;28;20424;-84
2021/06/04 02:29:41;;;;;;;13.70;5.70;;;20.50;54.80;;;;;;5056453;28;20397;-84
2021/06/04 02:32:17;;;;;;;8.43;6.20;;;20.50;54.40;;;;;;5055460;28;20531;-84
2021/06/04 02:34:47;;;;;;;17.30;7.03;;;20.50;54.80;;;;;;5055686;28;20412;-84
2021/06/04 02:37:19;;;;;;;10.03;6.47;;;20.40;54.50;;;;;;5056596;28;20435;-84
2021/06/04 02:39:49;;;;;;;7.37;5.60;;;20.30;54.20;;;;;;5055631;28;20440;-84
2021/06/04 02:42:20;;;;;;;11.10;6.30;;;20.10;54.50;;;;;;5056484;28;20502;-84
2021/06/04 02:44:49;;;;;;;14.50;7.30;;;20.10;54.70;;;;;;5073771;28;20421;-83
2021/06/04 02:47:19;;;;;;;13.90;7.30;;;20.20;54.80;;;;;;5077016;28;20432;-83
2021/06/04 02:49:46;;;;;;;13.60;8.00;;;20.30;54.30;;;;;;5071349;28;20797;-83
2021/06/04 02:52:29;;;;;;;11.43;6.60;;;20.30;54.40;;;;;;5056307;28;20468;-84
2021/06/04 02:54:56;;;;;;;13.70;8.90;;;20.20;54.30;;;;;;5074237;28;20408;-83
2021/06/04 02:57:27;;;;;;;22.73;6.73;;;20.10;54.70;;;;;;5077646;28;20467;-83
2021/06/04 02:59:53;;;;;;;22.63;7.53;;;20.20;54.70;;;;;;5076673;28;20420;-83
2021/06/04 03:02:24;;;;;;;14.57;6.57;;;20.20;54.40;;;;;;5070885;28;20929;-84
2021/06/04 03:04:53;;;;;;;10.23;7.10;;;20.30;54.30;;;;;;5053565;28;20515;-84
2021/06/04 03:07:24;;;;;;;8.40;6.37;;;20.30;54.00;;;;;;5054464;28;20428;-84
2021/06/04 03:09:50;;;;;;;9.67;6.20;;;20.20;53.90;;;;;;5053954;28;20452;-84
2021/06/04 03:12:20;;;;;;;17.27;6.90;;;20.10;54.60;;;;;;5053858;28;20971;-84
2021/06/04 03:14:50;;;;;;;12.43;6.50;;;20.00;55.00;;;;;;5054224;28;20471;-84
2021/06/04 03:17:19;;;;;;;8.40;6.20;;;19.90;54.90;;;;;;5054609;28;20776;-84
2021/06/04 03:19:45;;;;;;;8.10;6.10;;;20.00;54.70;;;;;;5053684;28;20483;-85
2021/06/04 03:22:15;;;;;;;12.17;6.30;;;20.20;54.60;;;;;;5053194;28;20475;-84
2021/06/04 03:24:44;;;;;;;10.30;6.70;;;20.00;54.70;;;;;;5053550;28;20513;-84
2021/06/04 03:27:12;;;;;;;7.83;6.40;;;19.70;55.20;;;;;;5053578;28;20428;-84
2021/06/04 03:29:38;;;;;;;10.23;6.67;;;19.90;55.20;;;;;;5053005;28;20489;-84
2021/06/04 03:32:09;;;;;;;7.90;6.63;;;19.90;54.70;;;;;;5053737;28;20535;-85
2021/06/04 03:34:38;;;;;;;23.53;7.20;;;19.90;54.80;;;;;;5053646;28;20822;-85
2021/06/04 03:37:06;;;;;;;8.43;6.67;;;20.00;54.90;;;;;;5053114;28;20492;-84
2021/06/04 03:39:35;;;;;;;8.90;5.73;;;19.90;54.70;;;;;;5053775;28;20448;-84
2021/06/04 03:42:04;;;;;;;17.23;6.87;;;20.00;54.30;;;;;;5054257;28;20444;-84
2021/06/04 03:44:33;;;;;;;15.43;6.73;;;20.10;54.30;;;;;;5055175;28;20496;-83
2021/06/04 03:47:00;;;;;;;9.60;6.50;;;20.10;54.00;;;;;;5053936;28;20472;-83
2021/06/04 03:49:28;;;;;;;10.43;7.73;;;20.20;54.10;;;;;;5054084;28;20444;-84
2021/06/04 03:51:57;;;;;;;20.20;7.07;;;20.20;53.80;;;;;;5054518;28;20448;-84
2021/06/04 03:54:28;;;;;;;11.70;6.20;;;20.20;53.60;;;;;;5054402;28;20500;-85
2021/06/04 03:56:55;;;;;;;8.87;6.03;;;20.40;53.50;;;;;;5055131;28;20484;-85
2021/06/04 03:59:22;;;;;;;10.77;6.20;;;20.50;53.10;;;;;;5057554;28;20456;-85
2021/06/04 04:01:51;;;;;;;8.80;6.00;;;20.60;53.10;;;;;;5057542;28;20536;-85
2021/06/04 04:04:18;;;;;;;12.30;5.97;;;20.60;53.10;;;;;;5057645;28;20855;-84
2021/06/04 04:06:46;;;;;;;11.67;5.60;;;20.40;53.50;;;;;;5057424;28;20502;-84
2021/06/04 04:09:13;;;;;;;8.70;6.07;;;20.40;53.60;;;;;;5057238;28;20471;-84
2021/06/04 04:11:42;;;;;;;14.03;8.13;;;20.50;53.50;;;;;;5057210;28;20432;-84
2021/06/04 04:14:08;;;;;;;9.13;6.83;;;20.90;52.50;;;;;;5056238;28;20589;-84
2021/06/04 04:16:35;;;;;;;12.70;6.47;;;21.00;52.00;;;;;;5056046;28;20550;-84
2021/06/04 04:19:01;;;;;;;10.07;6.50;;;20.90;51.80;;;;;;5057602;28;20526;-84
2021/06/04 04:21:28;;;;;;;7.60;5.60;;;21.00;52.30;;;;;;5057495;28;20452;-84
2021/06/04 04:24:00;;;;;;;14.47;6.00;;;21.00;52.40;;;;;;5058253;28;20514;-84
2021/06/04 04:26:29;;;;;;;8.93;5.40;;;21.30;51.80;;;;;;5058312;28;20487;-84
2021/06/04 04:28:56;;;;;;;7.97;5.70;;;21.40;51.70;;;;;;5057150;28;20444;-84
2021/06/04 04:31:25;;;;;;;8.80;5.67;;;21.50;51.40;;;;;;5057611;28;20515;-84
2021/06/04 04:33:51;;;;;;;12.37;5.57;;;21.30;51.50;;;;;;5056570;28;21067;-84
2021/06/04 04:36:20;;;;;;;8.83;5.27;;;21.00;52.10;;;;;;5057635;28;20456;-84
2021/06/04 04:38:47;;;;;;;17.27;5.70;;;21.10;51.70;;;;;;5056830;28;21044;-84
2021/06/04 04:41:15;;;;;;;9.13;5.30;;;21.20;51.90;;;;;;5057660;28;20448;-84
2021/06/04 04:43:45;;;;;;;5.93;5.17;;;21.00;52.90;;;;;;5056761;28;20517;-84
2021/06/04 04:46:13;;;;;;;11.50;5.30;;;20.90;52.80;;;;;;5057385;28;20542;-84
2021/06/04 04:48:40;;;;;;;10.43;5.33;;;21.00;52.60;;;;;;5056888;28;20810;-84
2021/06/04 04:51:08;;;;;;;7.70;5.73;;;21.10;52.70;;;;;;5057435;28;20539;-84
2021/06/04 04:53:34;;;;;;;7.63;6.23;;;21.20;52.80;;;;;;5058127;28;20550;-84
2021/06/04 04:56:01;;;;;;;7.43;5.50;;;21.10;52.70;;;;;;5057353;28;20435;-84
2021/06/04 04:58:29;;;;;;;8.33;5.80;;;20.90;53.70;;;;;;5059818;28;20432;-84
2021/06/04 05:00:56;;;;;;;6.40;5.40;;;20.90;53.50;;;;;;5058728;28;20475;-84
2021/06/04 05:03:23;;;;;;;10.73;6.60;;;20.90;53.00;;;;;;5059804;28;20486;-84
2021/06/04 05:05:50;;;;;;;16.93;7.70;;;21.00;52.60;;;;;;5069032;28;20447;-84
2021/06/04 05:08:17;;;;;;;10.73;5.40;;;21.50;52.00;;;;;;5062209;28;20447;-84
2021/06/04 05:10:45;;;;;;;11.07;5.20;;;21.60;51.70;;;;;;5071359;28;20816;-84
2021/06/04 05:13:12;;;;;;;6.60;5.17;;;21.30;52.40;;;;;;5073104;28;20494;-84
2021/06/04 05:15:41;;;;;;;13.77;4.90;;;21.20;52.80;;;;;;5072497;28;20479;-84
2021/06/04 05:18:11;;;;;;;11.87;5.10;;;21.00;53.20;;;;;;5072013;28;20527;-84
2021/06/04 05:20:37;;;;;;;9.10;5.60;;;20.80;53.70;;;;;;5071607;28;20535;-84
2021/06/04 05:23:06;;;;;;;8.67;5.90;;;20.90;53.80;;;;;;5070916;28;20487;-84
2021/06/04 05:25:36;;;;;;;11.43;5.10;;;20.80;54.50;;;;;;5070317;28;20523;-84
2021/06/04 05:28:04;;;;;;;7.33;6.00;;;21.20;53.60;;;;;;5072051;28;20452;-84
2021/06/04 05:30:32;;;;;;;5.67;4.50;;;21.20;53.60;;;;;;5071908;28;20448;-84
2021/06/04 05:33:00;;;;;;;13.17;6.37;;;21.50;53.10;;;;;;5072412;28;20480;-84
2021/06/04 05:35:28;;;;;;;10.43;5.70;;;21.90;52.80;;;;;;5073704;28;20443;-84
2021/06/04 05:37:55;;;;;;;9.37;5.50;;;21.90;52.60;;;;;;5071833;28;20444;-84
2021/06/04 05:40:25;;;;;;;9.93;5.67;;;22.30;52.20;;;;;;5072220;28;21003;-84
2021/06/04 05:42:52;;;;;;;5.80;5.20;;;23.00;51.20;;;;;;5072579;28;20481;-84
2021/06/04 05:45:35;;;;;;;10.37;5.03;;;24.40;48.90;;;;;;5067879;28;20451;-84
2021/06/04 05:48:08;;;;;;;13.37;4.83;;;26.20;44.10;;;;;;5070953;28;20467;-84
2021/06/04 05:50:38;;;;;;;9.87;5.80;;;27.20;43.40;;;;;;5071801;28;20448;-84
2021/06/04 05:53:06;;;;;;;8.20;5.30;;;28.30;41.10;;;;;;5072384;28;20512;-84
2021/06/04 05:55:35;;;;;;;6.93;4.90;;;29.50;39.70;;;;;;5074300;28;20467;-84
2021/06/04 05:58:02;;;;;;;7.93;4.37;;;30.50;37.50;;;;;;5072866;28;20503;-84
2021/06/04 06:00:32;;;;;;;7.40;4.67;;;31.30;34.80;;;;;;5073457;28;20428;-84
2021/06/04 06:02:59;;;;;;;10.43;4.93;;;31.80;34.30;;;;;;5072112;28;20468;-84
2021/06/04 06:05:28;;;;;;;6.37;3.77;;;33.00;32.10;;;;;;5072165;28;20440;-84
2021/06/04 06:07:55;;;;;;;6.50;4.77;;;34.20;29.80;;;;;;5072457;28;20448;-84
2021/06/04 06:10:22;;;;;;;5.57;4.30;;;33.60;29.70;;;;;;5073069;28;20448;-84
2021/06/04 06:12:48;;;;;;;7.70;4.70;;;33.60;30.00;;;;;;5072838;28;20495;-84
2021/06/04 06:15:15;;;;;;;6.43;4.30;;;34.10;30.10;;;;;;5071290;28;20447;-84
2021/06/04 06:17:42;;;;;;;4.70;4.00;;;34.30;28.70;;;;;;5078592;28;20447;-84
2021/06/04 06:20:12;;;;;;;11.47;4.40;;;35.00;27.80;;;;;;5078499;28;20448;-85
2021/06/04 06:22:40;;;;;;;10.13;4.53;;;34.80;27.90;;;;;;5078366;28;20479;-83
2021/06/04 06:25:08;;;;;;;6.63;3.97;;;35.30;27.00;;;;;;5077978;28;20431;-83
2021/06/04 06:27:35;;;;;;;6.93;4.10;;;35.00;26.70;;;;;;5078424;28;20447;-84
2021/06/04 06:30:01;;;;;;;6.97;4.03;;;34.90;26.80;;;;;;5078141;28;20456;-84
2021/06/04 06:32:27;;;;;;;5.63;3.77;;;35.20;27.20;;;;;;5077605;28;20443;-84
2021/06/04 06:34:54;;;;;;;8.93;4.40;;;35.30;26.30;;;;;;5077846;28;20468;-83
2021/06/04 06:37:20;;;;;;;10.67;3.97;;;35.10;26.60;;;;;;5068015;28;20440;-84
2021/06/04 06:39:48;;;;;;;5.67;3.63;;;35.10;26.90;;;;;;5060946;28;20444;-84
2021/06/04 06:42:14;;;;;;;5.73;3.50;;;35.60;26.70;;;;;;5056854;28;20467;-84
2021/06/04 06:44:40;;;;;;;4.37;3.10;;;35.60;26.20;;;;;;5071077;28;20432;-84
2021/06/04 06:47:07;;;;;;;8.20;3.60;;;36.30;25.70;;;;;;5078326;28;20469;-84
2021/06/04 06:49:33;;;;;;;6.43;3.10;;;37.20;24.90;;;;;;5078335;28;20420;-84
2021/06/04 06:52:00;;;;;;;8.50;3.40;;;37.40;24.10;;;;;;5078218;28;20515;-83
2021/06/04 06:54:30;;;;;;;12.53;3.27;;;37.90;23.20;;;;;;5078052;28;20474;-83
2021/06/04 06:56:59;;;;;;;6.40;3.17;;;37.30;23.20;;;;;;5077978;28;20451;-83
2021/06/04 06:59:29;;;;;;;4.53;3.57;;;37.00;23.50;;;;;;5077885;28;20451;-84
2021/06/04 07:01:56;;;;;;;6.77;3.13;;;36.00;24.00;;;;;;5077966;28;20459;-84
2021/06/04 07:04:23;;;;;;;12.67;3.20;;;35.90;24.40;;;;;;5077852;28;20550;-85
2021/06/04 07:06:49;;;;;;;5.63;3.77;;;36.10;24.00;;;;;;5076717;28;20431;-84
2021/06/04 07:09:17;;;;;;;9.20;3.23;;;36.50;23.90;;;;;;5075776;28;20517;-84
2021/06/04 07:11:49;;;;;;;4.77;2.90;;;35.40;24.00;;;;;;5076497;28;20428;-84
2021/06/04 07:14:20;;;;;;;11.13;3.30;;;34.30;25.40;;;;;;5073783;28;20492;-84
2021/06/04 07:16:46;;;;;;;6.13;3.93;;;33.30;27.10;;;;;;5056070;28;20882;-83
2021/06/04 07:19:13;;;;;;;5.10;3.33;;;34.20;26.40;;;;;;5054769;28;20506;-83
2021/06/04 07:21:41;;;;;;;6.97;3.20;;;34.20;26.40;;;;;;5056557;28;20452;-83
2021/06/04 07:24:13;;;;;;;5.63;3.20;;;34.20;26.40;;;;;;5056404;28;20559;-83
2021/06/04 07:26:40;;;;;;;6.17;3.10;;;34.80;26.50;;;;;;5058268;28;20443;-83
2021/06/04 07:29:06;;;;;;;7.07;3.37;;;35.80;25.30;;;;;;5057575;28;20969;-83
2021/06/04 07:31:34;;;;;;;5.23;3.27;;;36.60;24.60;;;;;;5076783;28;20541;-84
2021/06/04 07:34:03;;;;;;;9.60;3.33;;;37.00;23.90;;;;;;5066680;28;20486;-84
2021/06/04 07:36:33;;;;;;;21.83;3.27;;;37.40;22.90;;;;;;5072957;28;20444;-83
2021/06/04 07:39:00;;;;;;;5.27;3.13;;;37.70;23.00;;;;;;5065081;28;20493;-83
2021/06/04 07:41:27;;;;;;;8.93;3.57;;;37.10;23.80;;;;;;5057858;28;20996;-83
2021/06/04 07:43:55;;;;;;;7.07;3.77;;;37.40;23.30;;;;;;5056861;28;20535;-83
2021/06/04 07:46:23;;;;;;;8.80;3.37;;;36.80;24.00;;;;;;5063900;28;20440;-83
2021/06/04 07:48:53;;;;;;;6.10;3.27;;;37.10;23.80;;;;;;5059167;28;20444;-83
2021/06/04 07:51:23;;;;;;;10.90;4.40;;;37.60;23.50;;;;;;5060235;28;20448;-83
2021/06/04 07:53:49;;;;;;;7.63;3.73;;;37.70;23.10;;;;;;5060334;28;20543;-83
2021/06/04 07:56:17;;;;;;;6.87;4.10;;;37.50;23.20;;;;;;5064410;28;20447;-83
2021/06/04 07:58:44;;;;;;;5.97;4.20;;;37.10;23.20;;;;;;5076908;28;20432;-84
2021/06/04 08:01:11;;;;;;;11.27;4.43;;;37.50;23.00;;;;;;5076588;28;20475;-84
2021/06/04 08:03:38;;;;;;;9.60;3.10;;;37.60;23.00;;;;;;5075813;28;20452;-83
2021/06/04 08:06:07;;;;;;;6.23;3.20;;;37.60;22.80;;;;;;5075924;28;20452;-83
2021/06/04 08:08:35;;;;;;;4.37;2.63;;;38.10;21.30;;;;;;5075475;28;20436;-83
2021/06/04 08:11:02;;;;;;;6.47;3.27;;;37.20;21.70;;;;;;5075208;28;20454;-83
2021/06/04 08:13:29;;;;;;;6.27;3.00;;;37.60;22.10;;;;;;5076491;28;20479;-83
2021/06/04 08:15:59;;;;;;;5.33;3.17;;;37.10;21.80;;;;;;5064944;28;20933;-83
2021/06/04 08:18:28;;;;;;;9.00;3.30;;;36.20;23.40;;;;;;5052641;28;20439;-83
2021/06/04 08:20:54;;;;;;;7.67;3.40;;;35.20;23.60;;;;;;5052247;28;20481;-83
2021/06/04 08:23:26;;;;;;;7.07;3.43;;;35.30;24.60;;;;;;5052245;28;20931;-84
2021/06/04 08:25:57;;;;;;;10.00;3.30;;;34.80;24.80;;;;;;5092799;22;20581;-89
2021/06/04 08:28:24;;;;;;;19.20;3.40;;;35.10;24.90;;;;;;5074168;28;20428;-89
2021/06/04 08:30:51;;;;;;;7.20;3.13;;;35.80;23.90;;;;;;5075654;28;20468;-89
2021/06/04 08:33:22;;;;;;;6.10;3.20;;;36.00;23.80;;;;;;5074023;28;20483;-89
2021/06/04 08:35:48;;;;;;;9.57;3.20;;;35.00;25.00;;;;;;5074030;28;20483;-89
2021/06/04 08:38:15;;;;;;;7.83;2.83;;;36.40;22.50;;;;;;5074740;28;20448;-89
2021/06/04 08:40:44;;;;;;;6.07;3.00;;;36.20;22.90;;;;;;5074265;28;20443;-89
2021/06/04 08:43:19;;;;;;;5.20;2.90;;;35.60;23.30;;;;;;5076861;28;20443;-89
2021/06/04 08:45:51;;;;;;;10.63;3.20;;;35.60;23.10;;;;;;5082122;28;20803;-89
2021/06/04 08:48:36;;;;;;;8.80;3.20;;;36.20;22.90;;;;;;5077626;28;20466;-89
2021/06/04 08:51:11;;;;;;;11.00;3.80;;;35.70;23.00;;;;;;5076829;28;20428;-89
2021/06/04 08:53:48;;;;;;;6.37;2.90;;;35.90;23.00;;;;;;5077186;28;20493;-89
2021/06/04 08:56:20;;;;;;;6.30;2.97;;;35.60;23.00;;;;;;5077181;28;20562;-89
2021/06/04 08:58:55;;;;;;;12.73;3.20;;;35.10;22.80;;;;;;5077129;28;20913;-89
2021/06/04 09:01:28;;;;;;;5.80;2.80;;;35.60;23.00;;;;;;5085770;28;20431;-89
2021/06/04 09:03:59;;;;;;;6.00;3.40;;;34.90;23.10;;;;;;5078071;28;20459;-89
2021/06/04 09:06:35;;;;;;;9.80;3.10;;;34.60;23.90;;;;;;5077058;28;20487;-89
2021/06/04 09:09:10;;;;;;;14.60;3.57;;;34.20;24.00;;;;;;5077114;28;20939;-89
2021/06/04 09:11:39;;;;;;;7.30;3.40;;;33.80;24.60;;;;;;5076726;28;20786;-89
2021/06/04 09:14:07;;;;;;;7.57;3.30;;;34.40;24.90;;;;;;5075877;28;20573;-89
2021/06/04 09:16:44;;;;;;;11.87;3.20;;;34.40;24.60;;;;;;5075732;28;20958;-89
2021/06/04 09:19:18;;;;;;;7.40;2.83;;;34.20;24.90;;;;;;5076489;28;20506;-89
2021/06/04 09:21:45;;;;;;;4.30;3.13;;;33.90;25.80;;;;;;5076934;28;20522;-89
2021/06/04 09:24:18;;;;;;;7.10;3.40;;;33.50;25.60;;;;;;5076519;28;20526;-89
2021/06/04 09:26:45;;;;;;;10.13;3.40;;;33.30;26.60;;;;;;5077157;28;20474;-89
2021/06/04 09:29:21;;;;;;;12.60;3.50;;;33.00;27.10;;;;;;5076335;28;20812;-89
2021/06/04 09:31:50;;;;;;;6.93;2.73;;;33.10;27.20;;;;;;5075585;28;20522;-88
2021/06/04 09:34:30;;;;;;;8.03;3.27;;;33.10;26.50;;;;;;5075782;28;20479;-89
2021/06/04 09:36:59;;;;;;;8.47;3.53;;;32.50;27.50;;;;;;5075664;28;20427;-89
2021/06/04 09:39:31;;;;;;;17.43;3.87;;;32.10;28.40;;;;;;5078777;28;20922;-89
2021/06/04 09:42:15;;;;;;;5.80;2.97;;;32.40;28.00;;;;;;5075937;28;20800;-89
2021/06/04 09:44:54;;;;;;;6.70;2.93;;;32.10;28.20;;;;;;5076386;28;20459;-89
2021/06/04 09:47:33;;;;;;;5.83;3.27;;;32.60;27.80;;;;;;5076244;28;20459;-89
2021/06/04 09:50:13;;;;;;;5.97;2.70;;;32.60;28.20;;;;;;5077009;28;20435;-89
2021/06/04 09:52:41;;;;;;;7.37;3.20;;;33.10;27.80;;;;;;5076225;28;20470;-89
2021/06/04 09:55:28;;;;;;;5.33;3.23;;;32.30;27.80;;;;;;5077247;28;21085;-89
2021/06/04 09:58:20;;;;;;;7.30;3.30;;;32.70;27.40;;;;;;5076201;28;20438;-89
2021/06/04 10:00:50;;;;;;;4.47;2.87;;;32.50;27.90;;;;;;5076912;28;20446;-91
2021/06/04 10:03:39;;;;;;;10.30;4.00;;;32.20;27.70;;;;;;5076419;28;20444;-91
2021/06/04 10:06:32;;;;;;;20.10;5.70;;;32.00;27.40;;;;;;5076602;28;20490;-91
2021/06/04 10:09:01;;;;;;;19.13;4.53;;;32.10;27.10;;;;;;5074989;28;20516;-91
2021/06/04 10:11:29;;;;;;;4.63;2.97;;;32.00;27.90;;;;;;5076911;28;20525;-90
2021/06/04 10:14:04;;;;;;;7.20;3.40;;;31.20;28.80;;;;;;5076955;28;20479;-90
2021/06/04 10:17:00;;;;;;;15.20;3.13;;;30.40;30.00;;;;;;5078068;28;20518;-91
2021/06/04 10:19:35;;;;;;;16.57;3.40;;;30.10;30.20;;;;;;5083829;28;20465;-90
2021/06/04 10:22:34;;;;;;;9.20;3.50;;;30.50;30.10;;;;;;5078157;28;20414;-91
2021/06/04 10:25:21;;;;;;;9.17;3.33;;;31.00;29.70;;;;;;5081899;28;20479;-91
2021/06/04 10:27:51;;;;;;;5.70;3.00;;;31.30;28.90;;;;;;5078768;28;20431;-90
2021/06/04 10:30:21;;;;;;;8.17;3.33;;;31.10;29.20;;;;;;5078815;28;20447;-92
2021/06/04 10:32:59;;;;;;;8.13;2.97;;;31.40;29.00;;;;;;5080998;28;20455;-91
2021/06/04 10:35:30;;;;;;;8.37;3.77;;;31.20;29.00;;;;;;5077816;28;20886;-91
2021/06/04 10:38:05;;;;;;;10.70;3.87;;;31.40;29.20;;;;;;5087103;28;20447;-91
2021/06/04 10:40:35;;;;;;;9.90;3.27;;;31.30;29.10;;;;;;5076459;28;20435;-91
2021/06/04 10:43:25;;;;;;;18.47;3.33;;;31.70;28.80;;;;;;5076900;28;20435;-91
2021/06/04 10:45:56;;;;;;;11.33;3.40;;;31.50;29.30;;;;;;5069602;28;20812;-91
2021/06/04 10:48:36;;;;;;;11.60;3.60;;;31.10;29.80;;;;;;5074860;28;20848;-91
2021/06/04 10:51:11;;;;;;;13.80;3.40;;;30.60;29.50;;;;;;5074126;28;20495;-91
2021/06/04 10:53:44;;;;;;;12.50;3.60;;;29.70;33.60;;;;;;5076721;28;20503;-91
2021/06/04 10:56:17;;;;;;;6.30;3.50;;;28.80;39.20;;;;;;5076567;28;20533;-91
2021/06/04 10:58:49;;;;;;;12.40;4.23;;;28.20;36.90;;;;;;5077588;28;20581;-87
2021/06/04 11:01:25;;;;;;;12.20;3.87;;;28.10;39.20;;;;;;5073689;28;20923;-91
2021/06/04 11:03:57;;;;;;;6.73;3.30;;;28.30;38.60;;;;;;5073591;28;20477;-88
2021/06/04 11:06:28;;;;;;;14.10;4.10;;;28.00;36.40;;;;;;5072974;28;20474;-88
2021/06/04 11:09:13;;;;;;;8.67;3.53;;;27.60;37.30;;;;;;5074237;28;20456;-88
2021/06/04 11:11:54;;;;;;;10.27;3.80;;;27.30;37.90;;;;;;5074828;28;20486;-88
2021/06/04 11:14:46;;;;;;;6.37;3.60;;;27.30;38.10;;;;;;5073394;28;20869;-88
2021/06/04 11:17:23;;;;;;;8.67;3.70;;;27.30;37.80;;;;;;5074118;28;20489;-88
2021/06/04 11:19:52;;;;;;;5.43;3.37;;;27.40;38.30;;;;;;5073517;28;20435;-89
2021/06/04 11:22:22;;;;;;;7.83;3.60;;;27.40;39.10;;;;;;5074065;28;20443;-88
2021/06/04 11:24:54;;;;;;;11.37;4.03;;;27.10;40.10;;;;;;5073597;28;20852;-89
2021/06/04 11:27:26;;;;;;;5.13;3.33;;;27.00;40.60;;;;;;5074726;28;20519;-88
2021/06/04 11:29:53;;;;;;;8.47;3.60;;;27.20;40.10;;;;;;5075011;28;20968;-88
2021/06/04 11:32:24;;;;;;;6.10;4.20;;;26.70;40.50;;;;;;5074995;28;20531;-88
2021/06/04 11:34:55;;;;;;;7.87;4.37;;;26.60;42.30;;;;;;5074990;28;20479;-88
2021/06/04 11:37:40;;;;;;;16.83;4.00;;;26.60;42.30;;;;;;5075034;28;20438;-88
2021/06/04 11:40:12;;;;;;;6.13;3.67;;;26.40;42.70;;;;;;5074637;28;20503;-88
2021/06/04 11:42:50;;;;;;;10.40;4.30;;;26.20;43.00;;;;;;5075200;28;20408;-88
2021/06/04 11:45:22;;;;;;;8.30;3.80;;;26.50;42.80;;;;;;5074866;28;20463;-88
2021/06/04 11:47:51;;;;;;;8.53;4.07;;;26.40;42.70;;;;;;5075178;28;20456;-88
2021/06/04 11:50:37;;;;;;;4.87;4.00;;;26.30;43.70;;;;;;5074651;28;20462;-88
2021/06/04 11:53:29;;;;;;;8.00;4.50;;;26.10;43.90;;;;;;5074926;28;20408;-88
2021/06/04 11:55:55;;;;;;;12.73;4.60;;;26.00;44.50;;;;;;5074415;28;20560;-88
2021/06/04 11:58:52;;;;;;;10.60;4.13;;;26.20;45.00;;;;;;5075429;28;20963;-88
2021/06/04 12:01:39;;;;;;;5.10;3.67;;;26.30;44.00;;;;;;5077095;28;20931;-88
2021/06/04 12:04:23;;;;;;;12.80;4.33;;;26.40;44.40;;;;;;5078321;28;20439;-88
2021/06/04 12:07:00;;;;;;;11.33;4.87;;;26.40;43.90;;;;;;5075644;28;20498;-88
2021/06/04 12:09:50;;;;;;;10.63;4.23;;;26.50;43.70;;;;;;5075476;28;20435;-88
2021/06/04 12:13:00;;;;;;;9.93;4.53;;;26.90;43.10;;;;;;5074831;28;20453;-88
2021/06/04 12:15:43;;;;;;;7.80;4.17;;;27.10;42.40;;;;;;5074027;28;20476;-88
2021/06/04 12:19:02;;;;;;;8.53;3.50;;;27.60;41.50;;;;;;5076498;28;20449;-88
2021/06/04 12:21:57;;;;;;;9.70;3.87;;;27.80;41.70;;;;;;5078696;28;20803;-88
2021/06/04 12:24:49;;;;;;;6.00;4.03;;;28.00;41.00;;;;;;5078514;28;20462;-88
2021/06/04 12:28:02;;;;;;;7.10;4.20;;;28.40;40.30;;;;;;5078938;28;20447;-88
2021/06/04 12:31:10;;;;;;;8.20;4.20;;;28.40;40.30;;;;;;5078333;28;20981;-88
2021/06/04 12:33:52;;;;;;;5.47;3.53;;;28.20;41.30;;;;;;5079513;28;20510;-88
2021/06/04 12:36:55;;;;;;;9.53;3.60;;;28.50;40.10;;;;;;5079333;28;20471;-88
2021/06/04 12:40:09;;;;;;;9.53;4.27;;;28.70;39.20;;;;;;5080967;28;20450;-88
2021/06/04 12:43:07;;;;;;;10.83;3.50;;;29.20;38.70;;;;;;4996908;28;20489;-89
2021/06/04 12:45:35;;;;;;;7.70;3.73;;;29.20;37.60;;;;;;5076095;28;20463;-88
2021/06/04 12:48:18;;;;;;;12.53;4.17;;;29.20;38.00;;;;;;5078788;28;20447;-89
2021/06/04 12:51:01;;;;;;;7.70;3.60;;;29.40;37.50;;;;;;5078463;28;20474;-89
2021/06/04 12:53:33;;;;;;;6.07;4.23;;;29.70;37.60;;;;;;5078537;28;20495;-89
2021/06/04 12:56:22;;;;;;;6.90;4.00;;;29.90;38.90;;;;;;5078786;28;20486;-89
2021/06/04 12:58:54;;;;;;;13.53;4.50;;;29.90;39.50;;;;;;5078723;28;20416;-89
2021/06/04 13:01:25;;;;;;;9.13;3.53;;;29.90;38.90;;;;;;5078928;28;20936;-89
2021/06/04 13:03:54;;;;;;;7.50;3.40;;;30.10;38.80;;;;;;5079325;28;20451;-89
2021/06/04 13:06:43;;;;;;;7.97;3.73;;;29.80;38.60;;;;;;5082353;28;20543;-89
2021/06/04 13:09:26;;;;;;;10.03;4.67;;;29.80;37.60;;;;;;5083678;28;20440;-89